Time;durP1;ratioP1;P1;durP2;ratioP2;P2;SDS_P1;SDS_P2;PMS_P1;PMS_P2;Temp;Humidity;BMP_temperature;BMP_pressure;BME280_temperature;BME280_humidity;BME280_pressure;Samples;Min_cycle;Max_cycle;Signal;HPM_P1;HPM_P2
2023/03/18 00:00:39;;;;;;;2.15;1.23;;;22.30;47.10;;;;;;4981941;28;20479;-66
2023/03/18 00:03:05;;;;;;;2.33;1.30;;;22.20;47.10;;;;;;4983164;28;21012;-67
2023/03/18 00:05:33;;;;;;;2.40;1.25;;;22.20;47.10;;;;;;4982624;28;20499;-66
2023/03/18 00:07:59;;;;;;;2.55;1.00;;;22.20;47.10;;;;;;4983168;28;20475;-67
2023/03/18 00:10:25;;;;;;;2.00;1.10;;;22.20;47.20;;;;;;4995203;28;20117;-66
2023/03/18 00:12:52;;;;;;;2.47;1.20;;;22.20;47.20;;;;;;4980857;28;20114;-67
2023/03/18 00:15:18;;;;;;;2.03;1.15;;;22.20;47.20;;;;;;4983764;28;20058;-67
2023/03/18 00:17:45;;;;;;;3.25;1.27;;;22.20;47.20;;;;;;4984912;28;20026;-66
2023/03/18 00:20:12;;;;;;;2.75;1.10;;;22.10;47.10;;;;;;4986751;28;20125;-67
2023/03/18 00:22:39;;;;;;;1.90;1.10;;;22.10;47.10;;;;;;4981981;28;20042;-67
2023/03/18 00:25:06;;;;;;;2.42;1.30;;;22.10;47.10;;;;;;4980518;28;20512;-67
2023/03/18 00:27:33;;;;;;;2.35;1.33;;;22.10;47.20;;;;;;4983836;28;20042;-67
2023/03/18 00:29:59;;;;;;;3.08;1.20;;;22.10;47.10;;;;;;4984639;28;20422;-67
2023/03/18 00:32:26;;;;;;;2.38;1.23;;;22.10;47.20;;;;;;4986226;28;20061;-67
2023/03/18 00:34:53;;;;;;;2.25;1.23;;;22.10;47.20;;;;;;4986908;28;20026;-67
2023/03/18 00:37:29;;;;;;;2.35;1.20;;;22.10;47.20;;;;;;4986392;28;20490;-66
2023/03/18 00:40:04;;;;;;;2.40;1.30;;;22.10;47.80;;;;;;4983540;28;20031;-66
2023/03/18 00:42:36;;;;;;;1.98;1.20;;;22.10;47.30;;;;;;4984120;28;20561;-65
2023/03/18 00:45:03;;;;;;;2.58;1.40;;;22.10;47.30;;;;;;4985843;28;20049;-67
2023/03/18 00:47:29;;;;;;;2.78;1.30;;;22.00;47.30;;;;;;4986615;28;20031;-66
2023/03/18 00:49:55;;;;;;;2.22;1.20;;;22.00;47.20;;;;;;4985792;28;20030;-66
2023/03/18 00:52:21;;;;;;;2.13;1.13;;;22.00;47.20;;;;;;4987550;28;20042;-67
2023/03/18 00:54:47;;;;;;;2.28;1.20;;;22.00;47.30;;;;;;4987721;28;20034;-67
2023/03/18 00:57:13;;;;;;;3.45;1.27;;;22.00;47.30;;;;;;4983478;28;20406;-67
2023/03/18 00:59:39;;;;;;;2.65;1.40;;;22.00;47.30;;;;;;4985131;28;20437;-66
2023/03/18 01:02:05;;;;;;;2.58;1.05;;;22.00;47.30;;;;;;4983910;28;20027;-67
2023/03/18 01:04:32;;;;;;;2.75;1.27;;;21.90;47.20;;;;;;4985961;28;20501;-66
2023/03/18 01:06:58;;;;;;;1.85;1.10;;;21.90;47.30;;;;;;4984364;28;20368;-66
2023/03/18 01:09:23;;;;;;;2.17;1.08;;;21.90;47.30;;;;;;4986117;28;20041;-66
2023/03/18 01:11:49;;;;;;;1.60;0.85;;;21.90;47.30;;;;;;4983786;28;20097;-67
2023/03/18 01:14:15;;;;;;;1.80;1.05;;;21.90;47.30;;;;;;4983841;28;20335;-67
2023/03/18 01:16:40;;;;;;;1.70;1.20;;;21.90;47.40;;;;;;4986709;28;20031;-67
2023/03/18 01:19:06;;;;;;;2.33;1.10;;;21.90;47.30;;;;;;4987465;28;20037;-67
2023/03/18 01:21:32;;;;;;;2.00;1.20;;;21.90;47.30;;;;;;4985310;28;20031;-67
2023/03/18 01:23:59;;;;;;;2.03;1.10;;;21.90;47.30;;;;;;4987820;28;20061;-67
2023/03/18 01:26:25;;;;;;;2.05;1.10;;;21.80;47.30;;;;;;4991614;28;20149;-67
2023/03/18 01:28:52;;;;;;;2.15;1.00;;;21.80;47.30;;;;;;4983926;28;20031;-66
2023/03/18 01:31:18;;;;;;;1.63;1.10;;;21.80;47.30;;;;;;4985725;28;20089;-66
2023/03/18 01:33:44;;;;;;;2.20;1.27;;;21.80;47.90;;;;;;4986228;28;20391;-66
2023/03/18 01:36:10;;;;;;;2.10;1.02;;;21.80;47.30;;;;;;4985112;28;20030;-67
2023/03/18 01:38:36;;;;;;;1.83;1.10;;;21.80;47.40;;;;;;4984223;28;20026;-67
2023/03/18 01:41:03;;;;;;;1.60;0.90;;;21.80;47.90;;;;;;4983091;28;20062;-66
2023/03/18 01:43:32;;;;;;;1.92;1.10;;;21.80;47.40;;;;;;4982972;28;20033;-66
2023/03/18 01:46:00;;;;;;;1.50;0.93;;;21.80;47.40;;;;;;4986749;28;20041;-66
2023/03/18 01:48:29;;;;;;;2.35;1.20;;;21.80;47.40;;;;;;4996482;28;20479;-66
2023/03/18 01:51:06;;;;;;;1.25;0.95;;;21.70;47.40;;;;;;4983721;28;20023;-67
2023/03/18 01:53:37;;;;;;;2.28;1.20;;;21.70;47.40;;;;;;4982414;28;20058;-66
2023/03/18 01:56:05;;;;;;;1.45;0.95;;;21.70;47.40;;;;;;4985575;28;20073;-68
2023/03/18 01:58:36;;;;;;;2.17;1.25;;;21.70;47.40;;;;;;4984639;28;20467;-66
2023/03/18 02:01:38;;;;;;;2.25;1.08;;;21.70;47.40;;;;;;4987056;28;20476;-67
2023/03/18 02:04:07;;;;;;;2.30;1.15;;;21.70;47.40;;;;;;4982330;28;20394;-67
2023/03/18 02:06:33;;;;;;;1.75;1.00;;;21.70;47.40;;;;;;4984945;28;20023;-67
2023/03/18 02:08:59;;;;;;;1.60;1.10;;;21.70;47.40;;;;;;4984199;28;20089;-66
2023/03/18 02:11:25;;;;;;;1.40;1.00;;;21.70;47.40;;;;;;4982654;28;20109;-67
2023/03/18 02:13:52;;;;;;;1.50;0.90;;;21.70;47.50;;;;;;4979149;28;20475;-67
2023/03/18 02:16:21;;;;;;;1.90;1.10;;;21.60;47.50;;;;;;4983906;28;20030;-66
2023/03/18 02:18:50;;;;;;;2.13;1.20;;;21.60;47.40;;;;;;4985859;28;20454;-66
2023/03/18 02:21:54;;;;;;;1.23;0.80;;;21.60;47.50;;;;;;4984870;28;20034;-67
2023/03/18 02:24:40;;;;;;;1.63;1.10;;;21.60;47.50;;;;;;4984504;28;20105;-67
2023/03/18 02:27:27;;;;;;;1.55;0.95;;;21.60;47.50;;;;;;4982357;28;20077;-67
2023/03/18 02:30:01;;;;;;;1.48;0.90;;;21.60;47.50;;;;;;4983429;28;20033;-67
2023/03/18 02:32:29;;;;;;;1.77;0.98;;;21.60;47.50;;;;;;4983519;28;20558;-67
2023/03/18 02:34:56;;;;;;;1.10;0.90;;;21.60;47.50;;;;;;4984452;28;20038;-67
2023/03/18 02:37:21;;;;;;;1.50;1.00;;;21.60;47.50;;;;;;4985154;28;20097;-67
2023/03/18 02:39:47;;;;;;;1.90;1.10;;;21.60;47.50;;;;;;4982370;28;20068;-67
2023/03/18 02:42:13;;;;;;;1.67;0.98;;;21.60;47.60;;;;;;4983860;28;20034;-67
2023/03/18 02:44:44;;;;;;;1.48;1.05;;;21.60;47.60;;;;;;4983004;28;20124;-67
2023/03/18 02:47:15;;;;;;;1.67;1.10;;;21.50;47.50;;;;;;4979167;28;20026;-67
2023/03/18 02:49:41;;;;;;;1.25;0.90;;;21.50;47.50;;;;;;4982003;28;20022;-67
2023/03/18 02:52:07;;;;;;;1.70;1.00;;;21.50;47.60;;;;;;4983301;28;20102;-67
2023/03/18 02:54:33;;;;;;;1.75;1.15;;;21.50;47.50;;;;;;4983360;28;20628;-67
2023/03/18 02:56:59;;;;;;;1.55;0.90;;;21.50;47.60;;;;;;4982747;28;20041;-67
2023/03/18 02:59:25;;;;;;;1.40;0.90;;;21.50;47.60;;;;;;4979866;28;20040;-67
2023/03/18 03:01:53;;;;;;;2.10;1.00;;;21.50;47.60;;;;;;4982823;28;20406;-67
2023/03/18 03:04:22;;;;;;;1.40;0.90;;;21.50;47.60;;;;;;4982475;28;20070;-67
2023/03/18 03:06:50;;;;;;;1.33;0.80;;;21.50;47.60;;;;;;4996342;28;20141;-67
2023/03/18 03:09:16;;;;;;;1.83;0.90;;;21.40;47.60;;;;;;4983215;28;20038;-67
2023/03/18 03:11:45;;;;;;;1.63;1.10;;;21.40;47.60;;;;;;4982891;28;20050;-66
2023/03/18 03:14:11;;;;;;;1.40;1.05;;;21.40;47.60;;;;;;4985668;28;20026;-67
2023/03/18 03:16:36;;;;;;;1.52;0.90;;;21.40;47.60;;;;;;4985678;28;20030;-67
2023/03/18 03:19:04;;;;;;;1.80;1.05;;;21.40;47.60;;;;;;4989251;28;20415;-66
2023/03/18 03:21:32;;;;;;;2.22;1.10;;;21.40;47.60;;;;;;4986702;28;20108;-67
2023/03/18 03:23:58;;;;;;;1.25;0.85;;;21.40;47.60;;;;;;4984561;28;20463;-67
2023/03/18 03:26:24;;;;;;;1.30;0.90;;;21.40;47.60;;;;;;4983568;28;20371;-66
2023/03/18 03:28:50;;;;;;;1.25;0.90;;;21.40;47.60;;;;;;4985387;28;20144;-66
2023/03/18 03:31:16;;;;;;;1.50;0.90;;;21.40;47.70;;;;;;4983481;28;20026;-66
2023/03/18 03:33:43;;;;;;;1.33;0.90;;;21.40;47.70;;;;;;4982851;28;20478;-66
2023/03/18 03:36:15;;;;;;;1.33;0.90;;;21.40;47.70;;;;;;4982002;28;20030;-67
2023/03/18 03:38:41;;;;;;;1.90;1.05;;;21.40;47.70;;;;;;4988732;28;20026;-67
2023/03/18 03:41:09;;;;;;;1.25;1.00;;;21.40;47.70;;;;;;4981041;28;20097;-66
2023/03/18 03:43:36;;;;;;;1.50;0.90;;;21.40;47.80;;;;;;4983488;28;20025;-67
2023/03/18 03:46:02;;;;;;;1.25;1.00;;;21.30;47.70;;;;;;4982743;28;20019;-67
2023/03/18 03:48:27;;;;;;;1.33;0.90;;;21.30;47.70;;;;;;4982115;28;20030;-67
2023/03/18 03:50:53;;;;;;;1.30;0.80;;;21.30;47.80;;;;;;4981931;28;20509;-67
2023/03/18 03:53:20;;;;;;;1.40;0.90;;;21.30;47.70;;;;;;4983779;28;20022;-67
2023/03/18 03:55:45;;;;;;;1.33;0.80;;;21.30;47.80;;;;;;4981918;28;20030;-67
2023/03/18 03:58:11;;;;;;;1.50;0.90;;;21.30;47.80;;;;;;4983341;28;20395;-67
2023/03/18 04:00:37;;;;;;;1.60;1.10;;;21.30;47.80;;;;;;4982009;28;20036;-67
2023/03/18 04:03:03;;;;;;;1.85;1.00;;;21.30;47.80;;;;;;4982543;28;20533;-67
2023/03/18 04:05:29;;;;;;;1.60;1.00;;;21.30;47.80;;;;;;4982026;28;20054;-67
2023/03/18 04:07:58;;;;;;;1.42;0.90;;;21.30;47.80;;;;;;4982349;28;20076;-68
2023/03/18 04:10:25;;;;;;;1.42;0.90;;;21.30;47.80;;;;;;4982714;28;20097;-66
2023/03/18 04:12:51;;;;;;;1.90;1.00;;;21.30;47.80;;;;;;4984545;28;20181;-67
2023/03/18 04:15:18;;;;;;;1.48;0.90;;;21.30;47.80;;;;;;4980374;28;20106;-67
2023/03/18 04:17:44;;;;;;;1.40;1.00;;;21.30;47.80;;;;;;4981676;28;20027;-67
2023/03/18 04:20:11;;;;;;;1.40;0.98;;;21.30;47.80;;;;;;4986231;28;20034;-67
2023/03/18 04:22:37;;;;;;;1.52;1.00;;;21.30;47.80;;;;;;4982432;28;20507;-67
2023/03/18 04:25:04;;;;;;;1.40;0.90;;;21.20;47.80;;;;;;4984635;28;20031;-67
2023/03/18 04:27:31;;;;;;;1.95;1.17;;;21.30;47.80;;;;;;4982178;28;20034;-67
2023/03/18 04:29:56;;;;;;;1.92;1.20;;;21.20;47.80;;;;;;4982092;28;20027;-67
2023/03/18 04:32:22;;;;;;;1.40;0.90;;;21.20;47.70;;;;;;4983526;28;20356;-67
2023/03/18 04:34:49;;;;;;;1.67;1.00;;;21.20;47.80;;;;;;4981531;28;20391;-67
2023/03/18 04:37:18;;;;;;;1.20;0.90;;;21.20;47.80;;;;;;4983550;28;20033;-67
2023/03/18 04:39:45;;;;;;;1.20;0.90;;;21.20;47.80;;;;;;4981625;28;20019;-67
2023/03/18 04:42:11;;;;;;;1.73;0.98;;;21.20;47.90;;;;;;4983266;28;20596;-67
2023/03/18 04:44:37;;;;;;;1.10;0.80;;;21.20;47.80;;;;;;4984120;28;20022;-67
2023/03/18 04:47:03;;;;;;;1.30;0.90;;;21.20;47.90;;;;;;4984084;28;20037;-67
2023/03/18 04:49:29;;;;;;;1.05;0.80;;;21.20;48.40;;;;;;4982644;28;20033;-67
2023/03/18 04:51:55;;;;;;;1.45;0.93;;;21.20;47.80;;;;;;4981838;28;20023;-67
2023/03/18 04:54:20;;;;;;;0.90;0.80;;;21.20;47.90;;;;;;4985002;28;20018;-67
2023/03/18 04:56:46;;;;;;;1.80;0.90;;;21.20;47.90;;;;;;4981835;28;20034;-67
2023/03/18 04:59:12;;;;;;;0.95;0.80;;;21.20;47.90;;;;;;4983354;28;20026;-67
2023/03/18 05:01:37;;;;;;;1.38;0.80;;;21.20;47.90;;;;;;4983068;28;20451;-67
2023/03/18 05:04:03;;;;;;;1.40;1.00;;;21.20;47.90;;;;;;4982205;28;20434;-68
2023/03/18 05:06:30;;;;;;;1.10;0.80;;;21.20;47.90;;;;;;4980635;28;20035;-67
2023/03/18 05:08:57;;;;;;;1.35;1.00;;;21.10;47.80;;;;;;4980079;28;20027;-67
2023/03/18 05:11:24;;;;;;;1.20;0.90;;;21.20;47.90;;;;;;4997154;28;20030;-67
2023/03/18 05:13:50;;;;;;;0.95;0.80;;;21.10;47.90;;;;;;4987216;28;20471;-67
2023/03/18 05:16:17;;;;;;;1.70;0.90;;;21.10;47.90;;;;;;4987352;28;20023;-67
2023/03/18 05:18:43;;;;;;;1.67;0.95;;;21.20;47.90;;;;;;4984317;28;20054;-67
2023/03/18 05:21:09;;;;;;;1.98;0.80;;;21.10;47.90;;;;;;4990489;28;20069;-67
2023/03/18 05:23:35;;;;;;;1.17;0.88;;;21.10;47.90;;;;;;4984246;28;20043;-67
2023/03/18 05:26:02;;;;;;;1.17;0.90;;;21.10;47.90;;;;;;4986795;28;20387;-67
2023/03/18 05:28:28;;;;;;;1.30;0.90;;;21.10;47.90;;;;;;4982065;28;20042;-67
2023/03/18 05:30:54;;;;;;;1.70;0.93;;;21.10;48.40;;;;;;4984096;28;20390;-66
2023/03/18 05:33:20;;;;;;;1.52;0.90;;;21.10;47.90;;;;;;4997511;28;20027;-66
2023/03/18 05:35:46;;;;;;;1.23;0.88;;;21.10;47.90;;;;;;4985275;28;20029;-66
2023/03/18 05:38:12;;;;;;;1.15;0.82;;;21.10;47.90;;;;;;4986151;28;20391;-67
2023/03/18 05:40:38;;;;;;;0.90;0.70;;;21.10;47.90;;;;;;4983874;28;20077;-67
2023/03/18 05:43:03;;;;;;;1.23;0.80;;;21.10;48.00;;;;;;4981152;28;20430;-67
2023/03/18 05:45:29;;;;;;;1.92;1.00;;;21.10;47.90;;;;;;4984716;28;20467;-66
2023/03/18 05:47:56;;;;;;;1.15;0.80;;;21.10;48.00;;;;;;4983867;28;20077;-67
2023/03/18 05:50:32;;;;;;;1.77;0.90;;;21.10;48.00;;;;;;4983686;28;20014;-67
2023/03/18 05:52:59;;;;;;;1.17;0.85;;;21.10;48.00;;;;;;4985094;28;20483;-67
2023/03/18 05:55:27;;;;;;;1.00;0.75;;;21.10;48.00;;;;;;4985233;28;20037;-67
2023/03/18 05:57:53;;;;;;;1.10;0.70;;;21.10;48.00;;;;;;4985859;28;20026;-67
2023/03/18 06:00:19;;;;;;;1.23;0.90;;;21.10;48.50;;;;;;4984073;28;20030;-67
2023/03/18 06:02:45;;;;;;;1.38;0.90;;;21.10;48.10;;;;;;4986367;28;20105;-67
2023/03/18 06:05:11;;;;;;;1.35;0.90;;;21.10;48.00;;;;;;4983517;28;20092;-67
2023/03/18 06:07:38;;;;;;;1.10;0.73;;;21.10;48.10;;;;;;4984224;28;20031;-67
2023/03/18 06:10:04;;;;;;;1.42;0.90;;;21.10;48.10;;;;;;4985012;28;20076;-67
2023/03/18 06:12:29;;;;;;;1.33;0.90;;;21.00;48.00;;;;;;4984369;28;20061;-67
2023/03/18 06:14:55;;;;;;;1.38;0.75;;;21.10;48.10;;;;;;4986197;28;20038;-67
2023/03/18 06:17:21;;;;;;;0.82;0.80;;;21.00;48.50;;;;;;4984155;28;20057;-67
2023/03/18 06:19:47;;;;;;;1.23;0.80;;;21.00;48.00;;;;;;4985248;28;20023;-67
2023/03/18 06:22:15;;;;;;;1.40;0.90;;;21.00;48.00;;;;;;4983548;28;20386;-67
2023/03/18 06:24:41;;;;;;;1.40;0.90;;;21.00;48.00;;;;;;4982769;28;20482;-65
2023/03/18 06:27:07;;;;;;;1.40;0.93;;;21.00;48.10;;;;;;4983743;28;20130;-66
2023/03/18 06:29:34;;;;;;;1.50;0.90;;;21.00;48.10;;;;;;4982156;28;20029;-66
2023/03/18 06:32:00;;;;;;;1.23;0.90;;;21.00;48.10;;;;;;4982448;28;20077;-66
2023/03/18 06:34:26;;;;;;;1.60;0.90;;;21.00;48.10;;;;;;4983991;28;20026;-66
2023/03/18 06:36:52;;;;;;;1.40;0.80;;;21.00;48.10;;;;;;4982753;28;20263;-66
2023/03/18 06:39:21;;;;;;;0.70;0.70;;;21.00;48.10;;;;;;4985647;28;20038;-66
2023/03/18 06:41:47;;;;;;;1.50;1.00;;;21.00;48.60;;;;;;4985865;28;20046;-66
2023/03/18 06:44:13;;;;;;;1.15;0.90;;;21.00;48.10;;;;;;4986025;28;20379;-66
2023/03/18 06:46:39;;;;;;;0.88;0.75;;;21.00;48.10;;;;;;4996557;28;20595;-66
2023/03/18 06:49:05;;;;;;;0.95;0.80;;;21.00;48.10;;;;;;4983428;28;20019;-66
2023/03/18 06:51:32;;;;;;;1.67;1.00;;;21.00;48.10;;;;;;4990591;28;20525;-66
2023/03/18 06:53:59;;;;;;;1.23;0.90;;;21.00;48.10;;;;;;4984209;28;20843;-66
2023/03/18 06:56:25;;;;;;;1.60;0.90;;;21.00;48.20;;;;;;4981748;28;20061;-66
2023/03/18 06:58:51;;;;;;;1.73;0.98;;;21.00;48.10;;;;;;4980701;28;20132;-67
2023/03/18 07:01:18;;;;;;;1.67;0.90;;;21.00;48.10;;;;;;4989587;28;20033;-67
2023/03/18 07:03:44;;;;;;;1.83;1.02;;;20.90;48.10;;;;;;4982648;28;20069;-66
2023/03/18 07:06:10;;;;;;;1.42;0.90;;;21.00;48.20;;;;;;4985142;28;20058;-66
2023/03/18 07:08:35;;;;;;;1.58;1.00;;;21.00;48.20;;;;;;4983869;28;20565;-66
2023/03/18 07:11:02;;;;;;;1.73;0.93;;;20.90;48.20;;;;;;4981446;28;20030;-66
2023/03/18 07:13:28;;;;;;;1.70;1.00;;;20.90;48.10;;;;;;4982100;28;20101;-66
2023/03/18 07:15:57;;;;;;;2.17;1.00;;;21.00;48.20;;;;;;4981796;28;20614;-66
2023/03/18 07:18:23;;;;;;;1.38;0.90;;;20.90;48.20;;;;;;4985522;28;20026;-66
2023/03/18 07:20:49;;;;;;;1.15;0.80;;;20.90;48.20;;;;;;4980965;28;20403;-66
2023/03/18 07:23:15;;;;;;;1.45;1.08;;;20.90;48.20;;;;;;4982312;28;20062;-66
2023/03/18 07:25:41;;;;;;;1.20;0.90;;;20.90;48.20;;;;;;4983028;28;20219;-66
2023/03/18 07:28:07;;;;;;;1.45;0.93;;;20.90;48.20;;;;;;4984827;28;20050;-64
2023/03/18 07:30:33;;;;;;;1.55;0.90;;;20.90;48.20;;;;;;4983387;28;20477;-64
2023/03/18 07:32:59;;;;;;;1.42;1.02;;;20.90;48.20;;;;;;4981443;28;20049;-64
2023/03/18 07:35:24;;;;;;;1.10;0.90;;;20.90;48.20;;;;;;4981966;28;20035;-64
2023/03/18 07:37:50;;;;;;;1.20;0.88;;;20.90;48.20;;;;;;4984391;28;20482;-64
2023/03/18 07:40:16;;;;;;;1.40;0.80;;;20.90;48.20;;;;;;4983257;28;20026;-64
2023/03/18 07:42:41;;;;;;;1.65;0.93;;;20.90;48.20;;;;;;4982204;28;20058;-65
2023/03/18 07:45:08;;;;;;;0.93;0.80;;;20.90;48.20;;;;;;4982197;28;20023;-64
2023/03/18 07:47:33;;;;;;;1.83;1.25;;;20.90;48.20;;;;;;4983881;28;20018;-64
2023/03/18 07:49:59;;;;;;;1.63;0.95;;;20.90;48.20;;;;;;4982120;28;20093;-63
2023/03/18 07:52:25;;;;;;;1.88;1.15;;;20.90;48.20;;;;;;4980582;28;20023;-63
2023/03/18 07:54:51;;;;;;;1.77;1.10;;;20.90;48.10;;;;;;4984915;28;20109;-64
2023/03/18 07:57:17;;;;;;;1.52;0.98;;;20.90;48.20;;;;;;4987003;28;20031;-64
2023/03/18 07:59:42;;;;;;;1.88;1.10;;;20.90;48.10;;;;;;4982156;28;20052;-64
2023/03/18 08:02:13;;;;;;;1.58;1.00;;;20.90;48.60;;;;;;4983742;28;20023;-64
2023/03/18 08:04:39;;;;;;;2.17;1.10;;;20.90;48.10;;;;;;4981950;28;20105;-63
2023/03/18 08:07:05;;;;;;;1.45;0.82;;;20.90;48.50;;;;;;4983218;28;20508;-64
2023/03/18 08:09:31;;;;;;;1.98;1.10;;;20.90;48.00;;;;;;4983429;28;20026;-63
2023/03/18 08:11:57;;;;;;;1.92;1.17;;;20.90;48.00;;;;;;4981328;28;20046;-64
2023/03/18 08:14:22;;;;;;;2.13;1.13;;;20.90;48.00;;;;;;4980175;28;20419;-64
2023/03/18 08:16:48;;;;;;;2.83;1.30;;;20.90;48.00;;;;;;4985495;28;20023;-64
2023/03/18 08:19:14;;;;;;;2.28;1.00;;;20.80;47.90;;;;;;4998339;28;20031;-64
2023/03/18 08:21:39;;;;;;;2.30;1.40;;;20.90;47.90;;;;;;4983256;28;20030;-64
2023/03/18 08:24:05;;;;;;;2.53;1.33;;;20.90;47.90;;;;;;4988737;28;20069;-64
2023/03/18 08:26:31;;;;;;;1.60;1.10;;;20.80;47.90;;;;;;4983684;28;20027;-64
2023/03/18 08:28:57;;;;;;;2.55;1.30;;;20.80;48.40;;;;;;4980887;28;20027;-64
2023/03/18 08:31:22;;;;;;;2.65;1.30;;;20.80;47.90;;;;;;4982479;28;20026;-64
2023/03/18 08:33:48;;;;;;;2.53;1.20;;;20.80;47.90;;;;;;4984793;28;20109;-64
2023/03/18 08:36:14;;;;;;;1.77;1.40;;;20.80;47.80;;;;;;4983383;28;20041;-63
2023/03/18 08:38:40;;;;;;;1.92;1.20;;;20.80;47.80;;;;;;4981242;28;20034;-64
2023/03/18 08:41:06;;;;;;;2.40;1.35;;;20.80;48.40;;;;;;4983307;28;20039;-64
2023/03/18 08:43:32;;;;;;;2.00;1.33;;;20.80;47.90;;;;;;4984879;28;20026;-64
2023/03/18 08:45:57;;;;;;;2.33;1.30;;;20.80;47.90;;;;;;4981231;28;20050;-64
2023/03/18 08:48:24;;;;;;;2.80;1.30;;;20.80;47.90;;;;;;4981959;28;20033;-64
2023/03/18 08:50:51;;;;;;;2.03;1.38;;;20.80;47.90;;;;;;4988239;28;20137;-65
2023/03/18 08:53:17;;;;;;;1.92;1.30;;;20.80;47.90;;;;;;4984234;28;20105;-64
2023/03/18 08:55:43;;;;;;;2.72;1.40;;;20.80;47.90;;;;;;4982078;28;20066;-64
2023/03/18 08:58:09;;;;;;;2.13;1.30;;;20.80;47.90;;;;;;4988299;28;20070;-64
2023/03/18 09:00:36;;;;;;;2.15;1.50;;;20.80;48.40;;;;;;4984457;28;20027;-64
2023/03/18 09:03:02;;;;;;;2.20;1.60;;;20.80;47.90;;;;;;4987053;28;20462;-64
2023/03/18 09:05:29;;;;;;;1.92;1.30;;;20.80;47.90;;;;;;4983099;28;20038;-64
2023/03/18 09:07:55;;;;;;;1.98;1.30;;;20.80;48.00;;;;;;4986267;28;20109;-64
2023/03/18 09:10:21;;;;;;;2.30;1.40;;;20.80;48.00;;;;;;4985639;28;20393;-64
2023/03/18 09:12:48;;;;;;;2.05;1.30;;;20.80;48.60;;;;;;4984535;28;20023;-64
2023/03/18 09:15:15;;;;;;;2.40;1.40;;;20.80;48.10;;;;;;4982343;28;20471;-65
2023/03/18 09:17:41;;;;;;;2.38;1.30;;;20.80;48.10;;;;;;4987229;28;20030;-65
2023/03/18 09:20:09;;;;;;;1.92;1.20;;;20.80;48.10;;;;;;4984733;28;20061;-65
2023/03/18 09:22:36;;;;;;;2.33;1.30;;;20.80;48.20;;;;;;4983933;28;20039;-65
2023/03/18 09:25:01;;;;;;;2.22;1.35;;;20.80;48.20;;;;;;4984606;28;20398;-65
2023/03/18 09:27:27;;;;;;;2.42;1.40;;;20.80;48.20;;;;;;4982759;28;20029;-65
2023/03/18 09:29:53;;;;;;;2.55;1.38;;;20.80;48.30;;;;;;4984948;28;20022;-65
2023/03/18 09:32:19;;;;;;;2.03;1.40;;;20.80;48.20;;;;;;4981158;28;20061;-64
2023/03/18 09:34:45;;;;;;;3.03;1.77;;;20.80;48.40;;;;;;4984714;28;20030;-65
2023/03/18 09:37:12;;;;;;;3.30;1.50;;;20.90;48.70;;;;;;4986787;28;20027;-64
2023/03/18 09:39:38;;;;;;;2.60;1.50;;;21.00;48.70;;;;;;4980839;28;20435;-64
2023/03/18 09:42:35;;;;;;;2.53;1.75;;;21.00;48.70;;;;;;4983934;28;20104;-64
2023/03/18 09:45:08;;;;;;;2.75;1.67;;;21.10;48.60;;;;;;4985491;28;20045;-63
2023/03/18 09:47:50;;;;;;;3.03;2.08;;;21.20;48.30;;;;;;4982029;28;20486;-64
2023/03/18 09:50:46;;;;;;;3.75;1.65;;;21.40;48.30;;;;;;4985802;28;20102;-65
2023/03/18 09:53:25;;;;;;;2.80;1.60;;;21.50;48.00;;;;;;4984240;28;20594;-64
2023/03/18 09:56:00;;;;;;;4.07;1.80;;;21.60;47.90;;;;;;4983230;28;20029;-65
2023/03/18 09:58:35;;;;;;;3.78;1.73;;;21.70;47.60;;;;;;4983267;28;20034;-64
2023/03/18 10:01:03;;;;;;;3.20;1.70;;;21.80;47.70;;;;;;4982904;28;20157;-65
2023/03/18 10:03:32;;;;;;;2.30;1.60;;;21.70;48.20;;;;;;4983609;28;20502;-64
2023/03/18 10:06:15;;;;;;;2.65;1.40;;;21.70;47.80;;;;;;4982151;28;20042;-65
2023/03/18 10:08:58;;;;;;;2.10;1.40;;;21.70;47.80;;;;;;4985823;28;20490;-64
2023/03/18 10:11:36;;;;;;;4.40;1.60;;;21.80;47.70;;;;;;4984868;28;20478;-64
2023/03/18 10:14:33;;;;;;;2.78;1.60;;;21.80;47.70;;;;;;4985118;28;20042;-64
2023/03/18 10:17:19;;;;;;;2.85;1.75;;;21.80;47.60;;;;;;4982006;28;20113;-64
2023/03/18 10:19:54;;;;;;;3.13;1.90;;;21.80;47.50;;;;;;4985180;28;20418;-64
2023/03/18 10:22:42;;;;;;;2.65;1.60;;;21.90;48.10;;;;;;4981953;28;20513;-64
2023/03/18 10:25:19;;;;;;;2.75;1.42;;;21.90;47.50;;;;;;4984258;28;20030;-64
2023/03/18 10:27:50;;;;;;;2.80;1.60;;;21.90;47.50;;;;;;4984026;28;20112;-64
2023/03/18 10:30:38;;;;;;;3.20;1.63;;;22.00;47.50;;;;;;4984339;28;20084;-64
2023/03/18 10:33:12;;;;;;;3.58;1.80;;;22.00;47.60;;;;;;4985060;28;20026;-65
2023/03/18 10:35:52;;;;;;;2.63;1.50;;;22.10;47.50;;;;;;4985523;28;20026;-65
2023/03/18 10:38:27;;;;;;;2.28;1.70;;;22.00;47.40;;;;;;4983038;28;20054;-65
2023/03/18 10:40:53;;;;;;;2.65;1.60;;;22.10;47.50;;;;;;4983079;28;20493;-65
2023/03/18 10:43:24;;;;;;;3.10;1.70;;;22.10;47.50;;;;;;4982863;28;20034;-65
2023/03/18 10:45:59;;;;;;;2.80;1.50;;;22.10;47.40;;;;;;4984462;28;20490;-65
2023/03/18 10:48:58;;;;;;;2.60;1.50;;;22.10;47.40;;;;;;4984678;28;20053;-65
2023/03/18 10:51:52;;;;;;;2.72;1.88;;;22.10;47.40;;;;;;4981845;28;20103;-65
2023/03/18 10:54:51;;;;;;;2.20;1.60;;;22.10;47.40;;;;;;4982044;28;20030;-65
2023/03/18 10:57:18;;;;;;;3.10;1.60;;;22.10;47.30;;;;;;4982149;28;20497;-65
2023/03/18 10:59:44;;;;;;;2.40;1.50;;;22.10;47.30;;;;;;4983383;28;20085;-65
2023/03/18 11:02:31;;;;;;;3.33;1.40;;;22.10;47.30;;;;;;4985305;28;20391;-65
2023/03/18 11:05:21;;;;;;;3.30;1.63;;;22.20;47.40;;;;;;4983418;28;20026;-65
2023/03/18 11:07:58;;;;;;;2.38;1.30;;;22.20;47.40;;;;;;4980507;28;20474;-65
2023/03/18 11:10:34;;;;;;;2.53;1.52;;;22.20;47.40;;;;;;4981781;28;20023;-65
2023/03/18 11:13:01;;;;;;;2.65;1.60;;;22.10;47.40;;;;;;4982696;28;20847;-65
2023/03/18 11:15:36;;;;;;;2.22;1.40;;;22.10;47.40;;;;;;4982732;28;20027;-65
2023/03/18 11:18:02;;;;;;;4.10;1.77;;;22.20;47.50;;;;;;4984529;28;20030;-65
2023/03/18 11:20:44;;;;;;;3.33;1.58;;;22.20;47.50;;;;;;4981256;28;20379;-66
2023/03/18 11:23:34;;;;;;;3.65;1.70;;;22.20;47.50;;;;;;4982719;28;20034;-66
2023/03/18 11:26:01;;;;;;;2.65;1.55;;;22.20;47.50;;;;;;4984912;28;20157;-66
2023/03/18 11:28:28;;;;;;;2.50;1.25;;;22.20;47.60;;;;;;4983815;28;20435;-66
2023/03/18 11:30:57;;;;;;;2.08;1.33;;;22.20;47.60;;;;;;4983813;28;20023;-67
2023/03/18 11:33:25;;;;;;;2.05;1.40;;;22.20;47.60;;;;;;4983064;28;20064;-65
2023/03/18 11:36:13;;;;;;;3.13;1.53;;;22.20;47.80;;;;;;4982559;28;20462;-67
2023/03/18 11:38:39;;;;;;;2.80;1.48;;;22.20;47.80;;;;;;4983708;28;20305;-66
2023/03/18 11:41:11;;;;;;;3.45;1.50;;;22.20;47.70;;;;;;4981655;28;20066;-65
2023/03/18 11:43:37;;;;;;;3.03;1.50;;;22.20;47.70;;;;;;4983041;28;20026;-65
2023/03/18 11:46:06;;;;;;;3.30;1.38;;;22.30;47.80;;;;;;4983933;28;20049;-65
2023/03/18 11:48:38;;;;;;;1.95;1.10;;;22.30;47.80;;;;;;4980830;28;20031;-65
2023/03/18 11:51:16;;;;;;;2.55;1.40;;;22.30;47.80;;;;;;4984786;28;20380;-65
2023/03/18 11:53:56;;;;;;;2.75;1.60;;;22.30;47.70;;;;;;4984222;28;20426;-66
2023/03/18 11:56:26;;;;;;;2.90;1.40;;;22.30;47.80;;;;;;4985059;28;20022;-66
2023/03/18 11:59:03;;;;;;;2.65;1.20;;;22.30;47.80;;;;;;4982539;28;20035;-67
2023/03/18 12:01:56;;;;;;;2.03;1.10;;;22.30;47.80;;;;;;4983819;28;20038;-67
2023/03/18 12:04:38;;;;;;;2.10;1.10;;;22.30;47.60;;;;;;4968049;28;20038;-67
2023/03/18 12:07:30;;;;;;;1.77;1.10;;;22.30;47.60;;;;;;4984336;28;20023;-67
2023/03/18 12:10:16;;;;;;;1.77;1.00;;;22.30;47.60;;;;;;4980911;28;20047;-67
2023/03/18 12:13:02;;;;;;;2.17;1.17;;;22.30;47.60;;;;;;4983319;28;20037;-67
2023/03/18 12:15:43;;;;;;;1.75;1.10;;;22.30;47.60;;;;;;4984281;28;20100;-67
2023/03/18 12:18:35;;;;;;;2.17;1.20;;;22.30;47.50;;;;;;4978625;28;20125;-67
2023/03/18 12:21:42;;;;;;;1.90;1.00;;;22.30;47.50;;;;;;4983251;28;20102;-67
2023/03/18 12:24:29;;;;;;;1.88;1.02;;;22.30;47.40;;;;;;4982612;28;20039;-67
2023/03/18 12:27:11;;;;;;;1.75;1.10;;;22.30;47.40;;;;;;4982579;28;20108;-67
2023/03/18 12:29:51;;;;;;;2.22;1.20;;;22.20;47.40;;;;;;4983670;28;20037;-67
2023/03/18 12:32:44;;;;;;;1.90;1.20;;;22.20;47.40;;;;;;4985577;28;20050;-67
2023/03/18 12:35:43;;;;;;;1.52;1.00;;;22.20;47.40;;;;;;4988461;28;20045;-67
2023/03/18 12:38:15;;;;;;;;;;;22.20;47.40;;;;;;4985937;28;20045;-67
2023/03/18 12:40:48;;;;;;;2.33;1.00;;;22.20;47.40;;;;;;4989774;28;19910;-67
2023/03/18 12:43:20;;;;;;;3.17;1.25;;;22.20;47.40;;;;;;4985035;28;20405;-63
2023/03/18 12:45:52;;;;;;;2.47;1.10;;;22.20;47.40;;;;;;4985128;28;20041;-63
2023/03/18 12:48:23;;;;;;;1.88;1.10;;;22.20;47.40;;;;;;4983921;28;20408;-64
2023/03/18 12:50:57;;;;;;;1.45;0.95;;;22.20;47.40;;;;;;4984458;28;20022;-63
2023/03/18 12:53:45;;;;;;;1.55;1.00;;;22.20;47.50;;;;;;4987806;28;20471;-67
2023/03/18 12:56:23;;;;;;;2.08;1.08;;;22.10;47.40;;;;;;4984738;28;20517;-71
2023/03/18 12:58:51;;;;;;;1.92;1.08;;;22.20;47.50;;;;;;4983446;28;20102;-69
2023/03/18 13:01:48;;;;;;;2.20;1.05;;;22.20;47.60;;;;;;4981140;28;20101;-62